sensor_id;sensor_type;location;lat;lon;timestamp;P1;durP1;ratioP1;P2;durP2;ratioP2
52982;SDS011;48698;45.736;13.926;2022-08-21T00:00:41;1.42;;;1.10;;
52982;SDS011;48698;45.736;13.926;2022-08-21T00:05:49;5.68;;;1.25;;
52982;SDS011;48698;45.736;13.926;2022-08-21T00:10:53;3.50;;;1.25;;
52982;SDS011;48698;45.736;13.926;2022-08-21T00:15:57;7.32;;;1.40;;
52982;SDS011;48698;45.736;13.926;2022-08-21T00:21:00;5.30;;;1.30;;
52982;SDS011;48698;45.736;13.926;2022-08-21T00:26:04;3.67;;;1.20;;
52982;SDS011;48698;45.736;13.926;2022-08-21T00:31:08;4.70;;;1.40;;
52982;SDS011;48698;45.736;13.926;2022-08-21T00:41:15;14.10;;;1.60;;
52982;SDS011;48698;45.736;13.926;2022-08-21T00:46:40;4.47;;;1.30;;
52982;SDS011;48698;45.736;13.926;2022-08-21T00:51:51;2.88;;;1.00;;
52982;SDS011;48698;45.736;13.926;2022-08-21T00:56:59;2.37;;;1.10;;
52982;SDS011;48698;45.736;13.926;2022-08-21T01:02:06;2.67;;;1.20;;
52982;SDS011;48698;45.736;13.926;2022-08-21T01:07:10;2.75;;;1.40;;
52982;SDS011;48698;45.736;13.926;2022-08-21T01:12:13;2.83;;;1.03;;
52982;SDS011;48698;45.736;13.926;2022-08-21T01:22:22;7.53;;;1.80;;
52982;SDS011;48698;45.736;13.926;2022-08-21T01:27:25;2.03;;;1.20;;
52982;SDS011;48698;45.736;13.926;2022-08-21T01:32:29;7.23;;;1.30;;
52982;SDS011;48698;45.736;13.926;2022-08-21T01:37:32;11.37;;;1.40;;
52982;SDS011;48698;45.736;13.926;2022-08-21T01:42:36;5.32;;;1.20;;
52982;SDS011;48698;45.736;13.926;2022-08-21T01:52:45;3.40;;;1.40;;
52982;SDS011;48698;45.736;13.926;2022-08-21T01:57:50;7.70;;;1.30;;
52982;SDS011;48698;45.736;13.926;2022-08-21T02:02:53;3.40;;;1.00;;
52982;SDS011;48698;45.736;13.926;2022-08-21T02:07:56;3.13;;;1.20;;
52982;SDS011;48698;45.736;13.926;2022-08-21T02:13:00;4.60;;;1.17;;
52982;SDS011;48698;45.736;13.926;2022-08-21T02:18:04;2.15;;;1.00;;
52982;SDS011;48698;45.736;13.926;2022-08-21T02:23:09;3.35;;;1.23;;
52982;SDS011;48698;45.736;13.926;2022-08-21T02:28:14;3.60;;;0.90;;
52982;SDS011;48698;45.736;13.926;2022-08-21T02:33:17;3.72;;;1.30;;
52982;SDS011;48698;45.736;13.926;2022-08-21T02:43:27;3.92;;;1.40;;
52982;SDS011;48698;45.736;13.926;2022-08-21T02:48:31;4.00;;;1.30;;
52982;SDS011;48698;45.736;13.926;2022-08-21T02:53:36;2.03;;;1.17;;
52982;SDS011;48698;45.736;13.926;2022-08-21T02:58:43;2.42;;;1.20;;
52982;SDS011;48698;45.736;13.926;2022-08-21T03:03:49;3.38;;;1.25;;
52982;SDS011;48698;45.736;13.926;2022-08-21T03:08:56;6.25;;;1.88;;
52982;SDS011;48698;45.736;13.926;2022-08-21T03:14:00;2.53;;;1.10;;
52982;SDS011;48698;45.736;13.926;2022-08-21T03:19:03;2.25;;;1.02;;
52982;SDS011;48698;45.736;13.926;2022-08-21T03:24:07;4.38;;;1.33;;
52982;SDS011;48698;45.736;13.926;2022-08-21T03:29:12;5.82;;;1.60;;
52982;SDS011;48698;45.736;13.926;2022-08-21T03:34:15;2.80;;;1.17;;
52982;SDS011;48698;45.736;13.926;2022-08-21T03:39:18;3.50;;;0.90;;
52982;SDS011;48698;45.736;13.926;2022-08-21T03:44:22;2.72;;;1.42;;
52982;SDS011;48698;45.736;13.926;2022-08-21T03:49:25;7.60;;;1.40;;
52982;SDS011;48698;45.736;13.926;2022-08-21T03:54:28;2.63;;;1.40;;
52982;SDS011;48698;45.736;13.926;2022-08-21T03:59:32;3.90;;;1.50;;
52982;SDS011;48698;45.736;13.926;2022-08-21T04:04:36;4.57;;;1.38;;
52982;SDS011;48698;45.736;13.926;2022-08-21T04:09:40;1.70;;;1.10;;
52982;SDS011;48698;45.736;13.926;2022-08-21T04:14:43;2.88;;;0.90;;
52982;SDS011;48698;45.736;13.926;2022-08-21T04:19:46;2.42;;;1.52;;
52982;SDS011;48698;45.736;13.926;2022-08-21T04:24:54;2.42;;;1.25;;
52982;SDS011;48698;45.736;13.926;2022-08-21T04:29:57;7.25;;;1.40;;
52982;SDS011;48698;45.736;13.926;2022-08-21T04:35:02;4.40;;;1.30;;
52982;SDS011;48698;45.736;13.926;2022-08-21T04:40:09;2.63;;;1.52;;
52982;SDS011;48698;45.736;13.926;2022-08-21T04:45:18;5.47;;;1.80;;
52982;SDS011;48698;45.736;13.926;2022-08-21T04:56:01;2.58;;;1.60;;
52982;SDS011;48698;45.736;13.926;2022-08-21T05:01:08;9.60;;;2.00;;
52982;SDS011;48698;45.736;13.926;2022-08-21T05:06:18;4.13;;;1.38;;
52982;SDS011;48698;45.736;13.926;2022-08-21T05:11:23;3.50;;;1.48;;
52982;SDS011;48698;45.736;13.926;2022-08-21T05:16:27;2.73;;;1.30;;
52982;SDS011;48698;45.736;13.926;2022-08-21T05:21:40;3.75;;;1.40;;
52982;SDS011;48698;45.736;13.926;2022-08-21T05:26:45;10.82;;;1.60;;
52982;SDS011;48698;45.736;13.926;2022-08-21T05:31:49;2.97;;;1.30;;
52982;SDS011;48698;45.736;13.926;2022-08-21T05:41:56;3.78;;;1.30;;
52982;SDS011;48698;45.736;13.926;2022-08-21T05:47:03;5.77;;;1.30;;
52982;SDS011;48698;45.736;13.926;2022-08-21T05:52:11;3.13;;;1.50;;
52982;SDS011;48698;45.736;13.926;2022-08-21T05:57:14;1.75;;;1.45;;
52982;SDS011;48698;45.736;13.926;2022-08-21T06:02:18;1.90;;;1.30;;
52982;SDS011;48698;45.736;13.926;2022-08-21T06:07:23;4.10;;;1.23;;
52982;SDS011;48698;45.736;13.926;2022-08-21T06:12:26;4.10;;;1.52;;
52982;SDS011;48698;45.736;13.926;2022-08-21T06:17:29;1.87;;;1.37;;
52982;SDS011;48698;45.736;13.926;2022-08-21T06:22:33;1.97;;;1.10;;
52982;SDS011;48698;45.736;13.926;2022-08-21T06:27:37;4.13;;;1.50;;
52982;SDS011;48698;45.736;13.926;2022-08-21T06:32:40;2.87;;;1.10;;
52982;SDS011;48698;45.736;13.926;2022-08-21T06:37:43;1.20;;;1.10;;
52982;SDS011;48698;45.736;13.926;2022-08-21T06:42:46;3.33;;;1.20;;
52982;SDS011;48698;45.736;13.926;2022-08-21T06:47:50;1.55;;;1.17;;
52982;SDS011;48698;45.736;13.926;2022-08-21T06:53:04;1.70;;;1.00;;
52982;SDS011;48698;45.736;13.926;2022-08-21T06:58:09;1.30;;;0.98;;
52982;SDS011;48698;45.736;13.926;2022-08-21T07:08:22;1.13;;;0.75;;
52982;SDS011;48698;45.736;13.926;2022-08-21T07:13:25;1.08;;;0.70;;
52982;SDS011;48698;45.736;13.926;2022-08-21T07:18:29;0.82;;;0.50;;
52982;SDS011;48698;45.736;13.926;2022-08-21T07:23:34;2.40;;;0.80;;
52982;SDS011;48698;45.736;13.926;2022-08-21T07:28:40;1.98;;;0.93;;
52982;SDS011;48698;45.736;13.926;2022-08-21T07:33:45;2.70;;;0.80;;
52982;SDS011;48698;45.736;13.926;2022-08-21T07:38:48;4.95;;;1.05;;
52982;SDS011;48698;45.736;13.926;2022-08-21T07:43:54;0.73;;;0.73;;
52982;SDS011;48698;45.736;13.926;2022-08-21T07:49:00;2.30;;;0.90;;
52982;SDS011;48698;45.736;13.926;2022-08-21T07:54:03;1.00;;;0.80;;
52982;SDS011;48698;45.736;13.926;2022-08-21T07:59:07;4.28;;;0.93;;
52982;SDS011;48698;45.736;13.926;2022-08-21T08:04:10;1.00;;;0.85;;
52982;SDS011;48698;45.736;13.926;2022-08-21T08:09:13;0.80;;;0.60;;
52982;SDS011;48698;45.736;13.926;2022-08-21T08:14:18;4.72;;;1.00;;
52982;SDS011;48698;45.736;13.926;2022-08-21T08:19:32;1.33;;;0.80;;
52982;SDS011;48698;45.736;13.926;2022-08-21T08:24:37;1.95;;;0.63;;
52982;SDS011;48698;45.736;13.926;2022-08-21T08:29:42;3.10;;;0.70;;
52982;SDS011;48698;45.736;13.926;2022-08-21T08:34:45;7.30;;;1.25;;
52982;SDS011;48698;45.736;13.926;2022-08-21T08:39:50;3.35;;;0.80;;
52982;SDS011;48698;45.736;13.926;2022-08-21T08:44:59;1.25;;;0.65;;
52982;SDS011;48698;45.736;13.926;2022-08-21T08:50:11;2.33;;;0.70;;
52982;SDS011;48698;45.736;13.926;2022-08-21T08:55:24;1.20;;;0.70;;
52982;SDS011;48698;45.736;13.926;2022-08-21T09:10:18;5.55;;;0.77;;
52982;SDS011;48698;45.736;13.926;2022-08-21T09:29:41;1.15;;;0.68;;
52982;SDS011;48698;45.736;13.926;2022-08-21T09:40:31;1.58;;;0.80;;
52982;SDS011;48698;45.736;13.926;2022-08-21T09:50:25;1.30;;;0.70;;
52982;SDS011;48698;45.736;13.926;2022-08-21T11:05:43;0.77;;;0.40;;
52982;SDS011;48698;45.736;13.926;2022-08-21T11:10:53;1.20;;;0.43;;
52982;SDS011;48698;45.736;13.926;2022-08-21T11:50:27;0.40;;;0.35;;
52982;SDS011;48698;45.736;13.926;2022-08-21T11:55:39;1.20;;;0.93;;
52982;SDS011;48698;45.736;13.926;2022-08-21T12:05:53;2.55;;;0.70;;
52982;SDS011;48698;45.736;13.926;2022-08-21T12:16:14;0.70;;;0.60;;
52982;SDS011;48698;45.736;13.926;2022-08-21T12:21:20;1.02;;;0.70;;
52982;SDS011;48698;45.736;13.926;2022-08-21T12:26:33;2.47;;;0.65;;
52982;SDS011;48698;45.736;13.926;2022-08-21T12:31:53;1.00;;;0.68;;
52982;SDS011;48698;45.736;13.926;2022-08-21T12:37:03;0.95;;;0.60;;
52982;SDS011;48698;45.736;13.926;2022-08-21T12:47:27;2.58;;;0.85;;
52982;SDS011;48698;45.736;13.926;2022-08-21T12:52:59;1.95;;;1.00;;
52982;SDS011;48698;45.736;13.926;2022-08-21T12:58:23;4.20;;;0.70;;
52982;SDS011;48698;45.736;13.926;2022-08-21T13:03:27;1.70;;;0.88;;
52982;SDS011;48698;45.736;13.926;2022-08-21T13:08:31;2.83;;;0.70;;
52982;SDS011;48698;45.736;13.926;2022-08-21T13:13:47;1.58;;;0.70;;
52982;SDS011;48698;45.736;13.926;2022-08-21T13:18:57;2.58;;;0.90;;
52982;SDS011;48698;45.736;13.926;2022-08-21T13:24:21;1.50;;;0.80;;
52982;SDS011;48698;45.736;13.926;2022-08-21T13:29:43;2.72;;;0.80;;
52982;SDS011;48698;45.736;13.926;2022-08-21T13:34:55;1.52;;;0.70;;
52982;SDS011;48698;45.736;13.926;2022-08-21T13:39:58;1.55;;;0.77;;
52982;SDS011;48698;45.736;13.926;2022-08-21T13:45:02;3.03;;;0.80;;
52982;SDS011;48698;45.736;13.926;2022-08-21T13:50:06;1.77;;;0.70;;
52982;SDS011;48698;45.736;13.926;2022-08-21T13:55:12;1.52;;;0.85;;
52982;SDS011;48698;45.736;13.926;2022-08-21T14:00:20;1.95;;;0.82;;
52982;SDS011;48698;45.736;13.926;2022-08-21T14:05:29;2.90;;;0.95;;
52982;SDS011;48698;45.736;13.926;2022-08-21T14:10:36;3.15;;;0.60;;
52982;SDS011;48698;45.736;13.926;2022-08-21T14:15:45;3.90;;;0.90;;
52982;SDS011;48698;45.736;13.926;2022-08-21T14:21:09;3.03;;;0.95;;
52982;SDS011;48698;45.736;13.926;2022-08-21T14:31:21;1.63;;;0.90;;
52982;SDS011;48698;45.736;13.926;2022-08-21T14:36:32;4.57;;;1.00;;
52982;SDS011;48698;45.736;13.926;2022-08-21T14:41:38;3.25;;;1.10;;
52982;SDS011;48698;45.736;13.926;2022-08-21T14:46:41;7.32;;;1.80;;
52982;SDS011;48698;45.736;13.926;2022-08-21T14:51:57;5.30;;;1.70;;
52982;SDS011;48698;45.736;13.926;2022-08-21T14:57:08;4.70;;;1.88;;
52982;SDS011;48698;45.736;13.926;2022-08-21T15:02:14;5.40;;;1.70;;
52982;SDS011;48698;45.736;13.926;2022-08-21T15:07:18;11.48;;;2.10;;
52982;SDS011;48698;45.736;13.926;2022-08-21T15:12:21;7.67;;;2.20;;
52982;SDS011;48698;45.736;13.926;2022-08-21T15:17:24;3.17;;;1.73;;
52982;SDS011;48698;45.736;13.926;2022-08-21T15:27:32;4.15;;;1.88;;
52982;SDS011;48698;45.736;13.926;2022-08-21T15:32:35;4.47;;;2.20;;
52982;SDS011;48698;45.736;13.926;2022-08-21T15:37:39;5.10;;;2.10;;
52982;SDS011;48698;45.736;13.926;2022-08-21T15:42:43;3.85;;;2.13;;
52982;SDS011;48698;45.736;13.926;2022-08-21T15:47:46;4.88;;;2.28;;
52982;SDS011;48698;45.736;13.926;2022-08-21T15:52:52;3.47;;;1.83;;
52982;SDS011;48698;45.736;13.926;2022-08-21T15:57:56;4.63;;;1.90;;
52982;SDS011;48698;45.736;13.926;2022-08-21T16:03:04;2.97;;;1.80;;
52982;SDS011;48698;45.736;13.926;2022-08-21T16:08:09;5.55;;;2.00;;
52982;SDS011;48698;45.736;13.926;2022-08-21T16:13:20;4.63;;;2.03;;
52982;SDS011;48698;45.736;13.926;2022-08-21T16:18:28;5.68;;;2.42;;
52982;SDS011;48698;45.736;13.926;2022-08-21T16:23:31;4.67;;;1.73;;
52982;SDS011;48698;45.736;13.926;2022-08-21T16:28:36;2.72;;;2.08;;
52982;SDS011;48698;45.736;13.926;2022-08-21T16:33:45;5.97;;;1.80;;
52982;SDS011;48698;45.736;13.926;2022-08-21T16:44:02;5.80;;;2.25;;
52982;SDS011;48698;45.736;13.926;2022-08-21T16:49:07;3.67;;;2.17;;
52982;SDS011;48698;45.736;13.926;2022-08-21T16:54:11;3.30;;;1.90;;
52982;SDS011;48698;45.736;13.926;2022-08-21T16:59:16;2.80;;;2.00;;
52982;SDS011;48698;45.736;13.926;2022-08-21T17:04:19;2.38;;;1.88;;
52982;SDS011;48698;45.736;13.926;2022-08-21T17:09:23;2.35;;;1.70;;
52982;SDS011;48698;45.736;13.926;2022-08-21T17:14:26;4.10;;;1.90;;
52982;SDS011;48698;45.736;13.926;2022-08-21T17:19:29;6.13;;;2.23;;
52982;SDS011;48698;45.736;13.926;2022-08-21T17:24:33;4.47;;;2.10;;
52982;SDS011;48698;45.736;13.926;2022-08-21T17:29:37;5.78;;;2.13;;
52982;SDS011;48698;45.736;13.926;2022-08-21T17:34:42;4.03;;;1.95;;
52982;SDS011;48698;45.736;13.926;2022-08-21T17:39:45;2.63;;;2.17;;
52982;SDS011;48698;45.736;13.926;2022-08-21T17:44:48;2.88;;;1.80;;
52982;SDS011;48698;45.736;13.926;2022-08-21T17:49:52;4.00;;;1.70;;
52982;SDS011;48698;45.736;13.926;2022-08-21T17:54:55;3.03;;;1.97;;
52982;SDS011;48698;45.736;13.926;2022-08-21T17:59:59;4.20;;;2.00;;
52982;SDS011;48698;45.736;13.926;2022-08-21T18:05:03;3.20;;;1.87;;
52982;SDS011;48698;45.736;13.926;2022-08-21T18:10:08;4.40;;;1.83;;
52982;SDS011;48698;45.736;13.926;2022-08-21T18:15:15;4.25;;;1.85;;
52982;SDS011;48698;45.736;13.926;2022-08-21T18:20:21;2.15;;;1.70;;
52982;SDS011;48698;45.736;13.926;2022-08-21T18:25:25;3.58;;;1.80;;
52982;SDS011;48698;45.736;13.926;2022-08-21T18:30:28;3.38;;;2.10;;
52982;SDS011;48698;45.736;13.926;2022-08-21T18:35:32;4.18;;;2.22;;
52982;SDS011;48698;45.736;13.926;2022-08-21T18:40:36;4.95;;;2.88;;
52982;SDS011;48698;45.736;13.926;2022-08-21T18:45:45;4.40;;;2.40;;
52982;SDS011;48698;45.736;13.926;2022-08-21T18:50:49;5.07;;;2.33;;
52982;SDS011;48698;45.736;13.926;2022-08-21T18:55:52;6.80;;;2.13;;
52982;SDS011;48698;45.736;13.926;2022-08-21T19:00:59;2.97;;;2.20;;
52982;SDS011;48698;45.736;13.926;2022-08-21T19:06:03;4.95;;;1.63;;
52982;SDS011;48698;45.736;13.926;2022-08-21T19:11:10;5.18;;;2.13;;
52982;SDS011;48698;45.736;13.926;2022-08-21T19:16:14;3.80;;;2.03;;
52982;SDS011;48698;45.736;13.926;2022-08-21T19:21:18;3.13;;;1.75;;
52982;SDS011;48698;45.736;13.926;2022-08-21T19:26:25;4.97;;;2.20;;
52982;SDS011;48698;45.736;13.926;2022-08-21T19:31:31;5.22;;;2.30;;
52982;SDS011;48698;45.736;13.926;2022-08-21T19:36:36;4.15;;;1.80;;
52982;SDS011;48698;45.736;13.926;2022-08-21T19:41:45;4.88;;;2.08;;
52982;SDS011;48698;45.736;13.926;2022-08-21T19:46:52;5.55;;;1.90;;
52982;SDS011;48698;45.736;13.926;2022-08-21T19:51:59;7.25;;;2.47;;
52982;SDS011;48698;45.736;13.926;2022-08-21T19:57:14;2.97;;;1.90;;
52982;SDS011;48698;45.736;13.926;2022-08-21T20:02:18;4.95;;;2.10;;
52982;SDS011;48698;45.736;13.926;2022-08-21T20:07:21;4.00;;;2.10;;
52982;SDS011;48698;45.736;13.926;2022-08-21T20:12:27;11.15;;;2.20;;
52982;SDS011;48698;45.736;13.926;2022-08-21T20:17:31;4.70;;;2.40;;
52982;SDS011;48698;45.736;13.926;2022-08-21T20:22:34;4.95;;;1.88;;
52982;SDS011;48698;45.736;13.926;2022-08-21T20:27:38;7.18;;;2.10;;
52982;SDS011;48698;45.736;13.926;2022-08-21T20:32:42;4.13;;;1.77;;
52982;SDS011;48698;45.736;13.926;2022-08-21T20:37:46;3.22;;;1.75;;
52982;SDS011;48698;45.736;13.926;2022-08-21T20:43:00;4.43;;;2.07;;
52982;SDS011;48698;45.736;13.926;2022-08-21T20:48:16;3.47;;;1.60;;
52982;SDS011;48698;45.736;13.926;2022-08-21T20:53:48;2.63;;;1.60;;
52982;SDS011;48698;45.736;13.926;2022-08-21T20:59:13;4.68;;;2.10;;
52982;SDS011;48698;45.736;13.926;2022-08-21T21:04:25;2.78;;;2.00;;
52982;SDS011;48698;45.736;13.926;2022-08-21T21:09:38;3.83;;;2.00;;
52982;SDS011;48698;45.736;13.926;2022-08-21T21:14:47;3.42;;;2.00;;
52982;SDS011;48698;45.736;13.926;2022-08-21T21:19:57;4.43;;;1.80;;
52982;SDS011;48698;45.736;13.926;2022-08-21T21:25:10;4.63;;;2.40;;
52982;SDS011;48698;45.736;13.926;2022-08-21T21:30:21;2.92;;;2.40;;
52982;SDS011;48698;45.736;13.926;2022-08-21T21:35:30;6.30;;;2.30;;
52982;SDS011;48698;45.736;13.926;2022-08-21T21:40:44;3.63;;;2.13;;
52982;SDS011;48698;45.736;13.926;2022-08-21T21:45:59;5.35;;;2.53;;
52982;SDS011;48698;45.736;13.926;2022-08-21T21:51:19;3.10;;;2.50;;
52982;SDS011;48698;45.736;13.926;2022-08-21T22:22:34;7.90;;;2.85;;
52982;SDS011;48698;45.736;13.926;2022-08-21T22:27:41;6.65;;;2.40;;
52982;SDS011;48698;45.736;13.926;2022-08-21T22:32:47;6.38;;;2.53;;
52982;SDS011;48698;45.736;13.926;2022-08-21T22:37:57;6.40;;;2.60;;
52982;SDS011;48698;45.736;13.926;2022-08-21T22:43:06;5.50;;;2.40;;
52982;SDS011;48698;45.736;13.926;2022-08-21T22:48:22;6.13;;;2.38;;
52982;SDS011;48698;45.736;13.926;2022-08-21T22:53:29;9.95;;;2.60;;
52982;SDS011;48698;45.736;13.926;2022-08-21T23:03:43;5.28;;;2.55;;
52982;SDS011;48698;45.736;13.926;2022-08-21T23:08:52;3.92;;;2.17;;
52982;SDS011;48698;45.736;13.926;2022-08-21T23:13:56;4.90;;;2.20;;
52982;SDS011;48698;45.736;13.926;2022-08-21T23:24:45;5.10;;;2.47;;
52982;SDS011;48698;45.736;13.926;2022-08-21T23:30:15;5.00;;;2.30;;
52982;SDS011;48698;45.736;13.926;2022-08-21T23:36:26;6.57;;;2.40;;
52982;SDS011;48698;45.736;13.926;2022-08-21T23:41:21;3.65;;;2.30;;
52982;SDS011;48698;45.736;13.926;2022-08-21T23:46:44;11.00;;;2.40;;
